Idaho Falls, ID

4:20 AM MDT on August 31, 2014 (GMT -0600)
Idaho Falls High School | Change Station
CLOSE
Current Station
Personal Weather Station
Location: Idaho Falls, ID
Elevation: 4715 ft
Nearby Weather Stations

Elev 4715 ft 43.49 °N, 112.02 °W | Updated 2 seconds ago

Overcast
Overcast
54.0 °F
Feels Like 54.0 °F
N
3.5
Wind Variable Wind from SW
Gusts 3.5 mph

Today
High -- | Low -- °F
--% Chance of Precip.
Yesterday
High -- | Low -- °F
Precip. -- in
6:50 AM 8:04 PM
Waxing Crescent, 29% visible
Pressure 29.80 in
Visibility 10.0 miles
Clouds Mostly Cloudy 8000 ft
Mostly Cloudy 11000 ft
Dew Point 46 °F
Humidity 74%
Rainfall 0.00 in
Snow Depth Not available.
UV 0 out of 12
Pollen 8.90 out of 12
PM2.5 Good
Flu Activity Not available.
METAR KIDA 310953Z AUTO 33007KT 10SM BKN080 BKN110 11/07 A2990 RMK AO2 SLP089 T01110072

More Conditions Fewer Conditions

Pressure 29.80 in
Visibility 10.0 miles
Clouds Mostly Cloudy 8000 ft
Mostly Cloudy 11000 ft
Dew Point 46 °F
Humidity 74%
Rainfall 0.00 in
Snow Depth Not available.
UV 0 out of 12
Pollen 8.90 out of 12
PM2.5 Good
Flu Activity Not available.
METAR KIDA 310953Z AUTO 33007KT 10SM BKN080 BKN110 11/07 A2990 RMK AO2 SLP089 T01110072

More Conditions Fewer Conditions

10-Day Weather Forecast

Almanac

Astronomy

Aug. 31, 2014 Rise Set
Actual Time 6:50 AM MDT 8:04 PM MDT
Civil Twilight 6:20 AM MDT 8:33 PM MDT
Nautical Twilight 5:44 AM MDT 9:08 PM MDT
Astronomical Twilight 5:07 AM MDT 9:46 PM MDT
Moon 12:51 PM MDT 11:10 PM MDT
Length of Visible Light 14h 13m
Length of Day
13h 14m
Tomorrow will be 2m 51s shorter.
Waxing Crescent, 29% of the Moon is Illuminated
Today
Waxing Crescent
Sep 2
First Quarter
Sep 8
Full
Sep 15
Last Quarter
Sep 24
New

Today's Extremes

State Highs State Lows

Community

WunderPhotos

Upload Photos

1,748,834 photos uploaded!

Nearby

Air Quality

  Air Quality AQ Index Pollutant
Yesterday Good
PM2.5
Current Good
PM2.5
Sunday Good
PM2.5
Monday Good
PM2.5
Tuesday Good
PM2.5
Wednesday Good
PM2.5

Snow Depth

Station Depth Elevation
Sheep Mountain 0 in 6570 ft
Pine Creek Pass 0 in 6720 ft
Somsen Ranch 1 in 6800 ft
Crab Creek 113 in 6860 ft
Wildhorse Divide 0 in 6490 ft

Earthquake Activity

City Distance Mag. Time & Date
Driggs, Idaho 48 miles 3.8 2:09 PM MDT
2014-08-30
Minimum magnitude displayed is 2.5.

Coastal Water Temperatures

Place Temperature
No Stations Reporting

Nearby Weather Stations